sensor_id;sensor_type;location;lat;lon;timestamp;temperature;humidity
42683;DHT22;28293;50.930;3.464;2023-10-13T00:02:07;17.60;98.60
42683;DHT22;28293;50.930;3.464;2023-10-13T00:04:34;17.60;98.60
42683;DHT22;28293;50.930;3.464;2023-10-13T00:07:03;17.60;98.50
42683;DHT22;28293;50.930;3.464;2023-10-13T00:09:30;17.60;98.60
42683;DHT22;28293;50.930;3.464;2023-10-13T00:12:06;17.60;98.60
42683;DHT22;28293;50.930;3.464;2023-10-13T00:14:41;17.60;98.60
42683;DHT22;28293;50.930;3.464;2023-10-13T00:17:10;17.60;98.70
42683;DHT22;28293;50.930;3.464;2023-10-13T00:19:45;17.60;98.70
42683;DHT22;28293;50.930;3.464;2023-10-13T00:22:15;17.60;98.70
42683;DHT22;28293;50.930;3.464;2023-10-13T00:24:43;17.60;98.70
42683;DHT22;28293;50.930;3.464;2023-10-13T00:27:13;17.60;98.70
42683;DHT22;28293;50.930;3.464;2023-10-13T00:30:05;17.60;98.80
42683;DHT22;28293;50.930;3.464;2023-10-13T00:32:51;17.60;98.70
42683;DHT22;28293;50.930;3.464;2023-10-13T00:35:26;17.60;98.70
42683;DHT22;28293;50.930;3.464;2023-10-13T00:37:58;17.60;98.70
42683;DHT22;28293;50.930;3.464;2023-10-13T00:40:31;17.60;98.70
42683;DHT22;28293;50.930;3.464;2023-10-13T00:42:58;17.60;98.80
42683;DHT22;28293;50.930;3.464;2023-10-13T00:45:52;17.60;98.90
42683;DHT22;28293;50.930;3.464;2023-10-13T00:48:35;17.60;98.90
42683;DHT22;28293;50.930;3.464;2023-10-13T00:51:08;17.60;99.00
42683;DHT22;28293;50.930;3.464;2023-10-13T00:53:43;17.60;99.00
42683;DHT22;28293;50.930;3.464;2023-10-13T00:56:11;17.60;99.00
42683;DHT22;28293;50.930;3.464;2023-10-13T00:58:48;17.60;99.00
42683;DHT22;28293;50.930;3.464;2023-10-13T01:01:18;17.60;99.00
42683;DHT22;28293;50.930;3.464;2023-10-13T01:03:53;17.60;99.00
42683;DHT22;28293;50.930;3.464;2023-10-13T01:06:25;17.60;99.10
42683;DHT22;28293;50.930;3.464;2023-10-13T01:08:58;17.60;99.10
42683;DHT22;28293;50.930;3.464;2023-10-13T01:11:25;17.60;99.10
42683;DHT22;28293;50.930;3.464;2023-10-13T01:13:53;17.60;99.10
42683;DHT22;28293;50.930;3.464;2023-10-13T01:16:21;17.60;99.10
42683;DHT22;28293;50.930;3.464;2023-10-13T01:18:49;17.60;99.10
42683;DHT22;28293;50.930;3.464;2023-10-13T01:21:18;17.60;99.20
42683;DHT22;28293;50.930;3.464;2023-10-13T01:23:52;17.60;99.10
42683;DHT22;28293;50.930;3.464;2023-10-13T01:26:18;17.60;99.10
42683;DHT22;28293;50.930;3.464;2023-10-13T01:28:58;17.60;99.20
42683;DHT22;28293;50.930;3.464;2023-10-13T01:31:24;17.60;99.20
42683;DHT22;28293;50.930;3.464;2023-10-13T01:33:53;17.70;99.20
42683;DHT22;28293;50.930;3.464;2023-10-13T01:36:25;17.70;99.20
42683;DHT22;28293;50.930;3.464;2023-10-13T01:38:51;17.70;99.30
42683;DHT22;28293;50.930;3.464;2023-10-13T01:41:17;17.70;99.20
42683;DHT22;28293;50.930;3.464;2023-10-13T01:43:43;17.70;99.20
42683;DHT22;28293;50.930;3.464;2023-10-13T01:46:10;17.70;99.20
42683;DHT22;28293;50.930;3.464;2023-10-13T01:48:39;17.70;99.30
42683;DHT22;28293;50.930;3.464;2023-10-13T01:51:05;17.80;99.30
42683;DHT22;28293;50.930;3.464;2023-10-13T01:53:38;17.70;99.30
42683;DHT22;28293;50.930;3.464;2023-10-13T01:56:05;17.80;99.40
42683;DHT22;28293;50.930;3.464;2023-10-13T01:58:40;17.80;99.40
42683;DHT22;28293;50.930;3.464;2023-10-13T02:01:13;17.80;99.50
42683;DHT22;28293;50.930;3.464;2023-10-13T02:03:46;17.80;99.50
42683;DHT22;28293;50.930;3.464;2023-10-13T02:06:13;17.90;99.60
42683;DHT22;28293;50.930;3.464;2023-10-13T02:08:42;17.90;99.70
42683;DHT22;28293;50.930;3.464;2023-10-13T02:11:09;18.00;99.80
42683;DHT22;28293;50.930;3.464;2023-10-13T02:13:35;18.00;99.90
42683;DHT22;28293;50.930;3.464;2023-10-13T02:16:07;18.10;99.90
42683;DHT22;28293;50.930;3.464;2023-10-13T02:18:33;18.10;99.90
42683;DHT22;28293;50.930;3.464;2023-10-13T02:21:03;18.10;99.90
42683;DHT22;28293;50.930;3.464;2023-10-13T02:23:41;18.20;99.90
42683;DHT22;28293;50.930;3.464;2023-10-13T02:26:12;18.20;99.90
42683;DHT22;28293;50.930;3.464;2023-10-13T02:28:40;18.20;99.90
42683;DHT22;28293;50.930;3.464;2023-10-13T02:31:06;18.30;99.90
42683;DHT22;28293;50.930;3.464;2023-10-13T02:33:33;18.30;99.90
42683;DHT22;28293;50.930;3.464;2023-10-13T02:36:01;18.30;99.90
42683;DHT22;28293;50.930;3.464;2023-10-13T02:38:32;18.30;99.90
42683;DHT22;28293;50.930;3.464;2023-10-13T02:41:12;18.30;99.90
42683;DHT22;28293;50.930;3.464;2023-10-13T02:43:44;18.30;99.90
42683;DHT22;28293;50.930;3.464;2023-10-13T02:46:09;18.30;99.90
42683;DHT22;28293;50.930;3.464;2023-10-13T02:48:35;18.30;99.90
42683;DHT22;28293;50.930;3.464;2023-10-13T02:51:08;18.30;99.90
42683;DHT22;28293;50.930;3.464;2023-10-13T02:53:47;18.40;99.90
42683;DHT22;28293;50.930;3.464;2023-10-13T02:56:15;18.30;99.90
42683;DHT22;28293;50.930;3.464;2023-10-13T02:58:47;18.30;99.90
42683;DHT22;28293;50.930;3.464;2023-10-13T03:01:19;18.30;99.90
42683;DHT22;28293;50.930;3.464;2023-10-13T03:03:50;18.40;99.90
42683;DHT22;28293;50.930;3.464;2023-10-13T03:06:18;18.40;99.90
42683;DHT22;28293;50.930;3.464;2023-10-13T03:08:48;18.40;99.90
42683;DHT22;28293;50.930;3.464;2023-10-13T03:11:14;18.50;99.90
42683;DHT22;28293;50.930;3.464;2023-10-13T03:13:42;18.40;99.90
42683;DHT22;28293;50.930;3.464;2023-10-13T03:16:15;18.50;99.90
42683;DHT22;28293;50.930;3.464;2023-10-13T03:18:51;18.50;99.90
42683;DHT22;28293;50.930;3.464;2023-10-13T03:21:23;18.50;99.90
42683;DHT22;28293;50.930;3.464;2023-10-13T03:23:59;18.50;99.90
42683;DHT22;28293;50.930;3.464;2023-10-13T03:26:33;18.50;99.90
42683;DHT22;28293;50.930;3.464;2023-10-13T03:29:01;18.40;99.90
42683;DHT22;28293;50.930;3.464;2023-10-13T03:31:30;18.40;99.90
42683;DHT22;28293;50.930;3.464;2023-10-13T03:33:56;18.40;99.90
42683;DHT22;28293;50.930;3.464;2023-10-13T03:36:26;18.40;99.90
42683;DHT22;28293;50.930;3.464;2023-10-13T03:39:10;18.40;99.90
42683;DHT22;28293;50.930;3.464;2023-10-13T03:41:36;18.40;99.90
42683;DHT22;28293;50.930;3.464;2023-10-13T03:44:05;18.40;99.90
42683;DHT22;28293;50.930;3.464;2023-10-13T03:46:38;18.40;99.90
42683;DHT22;28293;50.930;3.464;2023-10-13T03:49:07;18.40;99.90
42683;DHT22;28293;50.930;3.464;2023-10-13T03:51:39;18.40;99.90
42683;DHT22;28293;50.930;3.464;2023-10-13T03:54:05;18.40;99.90
42683;DHT22;28293;50.930;3.464;2023-10-13T03:56:34;18.40;99.90
42683;DHT22;28293;50.930;3.464;2023-10-13T03:59:06;18.30;99.90
42683;DHT22;28293;50.930;3.464;2023-10-13T04:01:35;18.30;99.90
42683;DHT22;28293;50.930;3.464;2023-10-13T04:04:17;18.30;99.90
42683;DHT22;28293;50.930;3.464;2023-10-13T04:07:00;18.30;99.90
42683;DHT22;28293;50.930;3.464;2023-10-13T04:09:36;18.30;99.90
42683;DHT22;28293;50.930;3.464;2023-10-13T04:12:06;18.30;99.90
42683;DHT22;28293;50.930;3.464;2023-10-13T04:14:47;18.30;99.90
42683;DHT22;28293;50.930;3.464;2023-10-13T04:17:38;18.30;99.90
42683;DHT22;28293;50.930;3.464;2023-10-13T04:20:10;18.30;99.90
42683;DHT22;28293;50.930;3.464;2023-10-13T04:22:41;18.20;99.90
42683;DHT22;28293;50.930;3.464;2023-10-13T04:25:12;18.20;99.90
42683;DHT22;28293;50.930;3.464;2023-10-13T04:28:01;18.20;99.90
42683;DHT22;28293;50.930;3.464;2023-10-13T04:33:18;18.20;99.90
42683;DHT22;28293;50.930;3.464;2023-10-13T04:36:05;18.10;99.90
42683;DHT22;28293;50.930;3.464;2023-10-13T04:38:40;18.10;99.90
42683;DHT22;28293;50.930;3.464;2023-10-13T04:44:00;18.10;99.90
42683;DHT22;28293;50.930;3.464;2023-10-13T04:46:53;18.10;99.90
42683;DHT22;28293;50.930;3.464;2023-10-13T04:49:29;18.10;99.90
42683;DHT22;28293;50.930;3.464;2023-10-13T04:52:02;18.10;99.90
42683;DHT22;28293;50.930;3.464;2023-10-13T04:54:39;18.10;99.90
42683;DHT22;28293;50.930;3.464;2023-10-13T04:57:18;18.10;99.90
42683;DHT22;28293;50.930;3.464;2023-10-13T05:00:02;18.10;99.90
42683;DHT22;28293;50.930;3.464;2023-10-13T05:02:39;18.10;99.90
42683;DHT22;28293;50.930;3.464;2023-10-13T05:05:20;18.10;99.90
42683;DHT22;28293;50.930;3.464;2023-10-13T05:07:52;18.10;99.90
42683;DHT22;28293;50.930;3.464;2023-10-13T05:10:37;18.10;99.90
42683;DHT22;28293;50.930;3.464;2023-10-13T05:13:21;18.10;99.90
42683;DHT22;28293;50.930;3.464;2023-10-13T05:16:06;18.20;99.90
42683;DHT22;28293;50.930;3.464;2023-10-13T05:18:50;18.10;99.90
42683;DHT22;28293;50.930;3.464;2023-10-13T05:21:35;18.10;99.90
42683;DHT22;28293;50.930;3.464;2023-10-13T05:24:19;18.20;99.90
42683;DHT22;28293;50.930;3.464;2023-10-13T05:27:03;18.20;99.90
42683;DHT22;28293;50.930;3.464;2023-10-13T05:29:48;18.20;99.90
42683;DHT22;28293;50.930;3.464;2023-10-13T05:32:32;18.30;99.90
42683;DHT22;28293;50.930;3.464;2023-10-13T05:35:19;18.30;99.90
42683;DHT22;28293;50.930;3.464;2023-10-13T05:38:03;18.20;99.90
42683;DHT22;28293;50.930;3.464;2023-10-13T05:41:03;18.30;99.90
42683;DHT22;28293;50.930;3.464;2023-10-13T05:43:48;18.30;99.90
42683;DHT22;28293;50.930;3.464;2023-10-13T05:46:33;18.30;99.90
42683;DHT22;28293;50.930;3.464;2023-10-13T05:49:06;18.30;99.90
42683;DHT22;28293;50.930;3.464;2023-10-13T05:51:54;18.20;99.90
42683;DHT22;28293;50.930;3.464;2023-10-13T05:54:32;18.20;99.90
42683;DHT22;28293;50.930;3.464;2023-10-13T05:57:16;18.20;99.90
42683;DHT22;28293;50.930;3.464;2023-10-13T06:00:00;18.30;99.90
42683;DHT22;28293;50.930;3.464;2023-10-13T06:02:45;18.20;99.90
42683;DHT22;28293;50.930;3.464;2023-10-13T06:05:29;18.20;99.90
42683;DHT22;28293;50.930;3.464;2023-10-13T06:08:13;18.30;99.70
42683;DHT22;28293;50.930;3.464;2023-10-13T06:11:03;18.30;99.50
42683;DHT22;28293;50.930;3.464;2023-10-13T06:13:48;18.30;99.30
42683;DHT22;28293;50.930;3.464;2023-10-13T06:16:32;18.30;99.20
42683;DHT22;28293;50.930;3.464;2023-10-13T06:19:17;18.40;99.00
42683;DHT22;28293;50.930;3.464;2023-10-13T06:22:01;18.40;98.80
42683;DHT22;28293;50.930;3.464;2023-10-13T06:24:45;18.40;98.70
42683;DHT22;28293;50.930;3.464;2023-10-13T06:27:29;18.40;98.50
42683;DHT22;28293;50.930;3.464;2023-10-13T06:30:14;18.40;98.50
42683;DHT22;28293;50.930;3.464;2023-10-13T06:32:40;18.40;98.30
42683;DHT22;28293;50.930;3.464;2023-10-13T06:35:06;18.40;98.30
42683;DHT22;28293;50.930;3.464;2023-10-13T06:37:41;18.50;98.20
42683;DHT22;28293;50.930;3.464;2023-10-13T06:40:11;18.50;98.10
42683;DHT22;28293;50.930;3.464;2023-10-13T06:42:56;18.50;98.10
42683;DHT22;28293;50.930;3.464;2023-10-13T06:45:37;18.60;97.80
42683;DHT22;28293;50.930;3.464;2023-10-13T06:48:03;18.60;97.70
42683;DHT22;28293;50.930;3.464;2023-10-13T06:50:30;18.60;97.60
42683;DHT22;28293;50.930;3.464;2023-10-13T06:53:04;18.60;97.40
42683;DHT22;28293;50.930;3.464;2023-10-13T06:55:30;18.60;97.10
42683;DHT22;28293;50.930;3.464;2023-10-13T06:58:01;18.70;96.70
42683;DHT22;28293;50.930;3.464;2023-10-13T07:00:27;18.70;96.50
42683;DHT22;28293;50.930;3.464;2023-10-13T07:02:56;18.80;96.40
42683;DHT22;28293;50.930;3.464;2023-10-13T07:05:57;18.80;96.10
42683;DHT22;28293;50.930;3.464;2023-10-13T07:08:25;18.80;95.90
42683;DHT22;28293;50.930;3.464;2023-10-13T07:10:55;18.90;95.70
42683;DHT22;28293;50.930;3.464;2023-10-13T07:13:29;18.90;95.50
42683;DHT22;28293;50.930;3.464;2023-10-13T07:15:55;19.00;95.20
42683;DHT22;28293;50.930;3.464;2023-10-13T07:18:30;19.00;95.00
42683;DHT22;28293;50.930;3.464;2023-10-13T07:21:03;19.10;94.70
42683;DHT22;28293;50.930;3.464;2023-10-13T07:23:35;19.10;94.30
42683;DHT22;28293;50.930;3.464;2023-10-13T07:26:01;19.10;94.10
42683;DHT22;28293;50.930;3.464;2023-10-13T07:28:30;19.10;93.70
42683;DHT22;28293;50.930;3.464;2023-10-13T07:31:02;19.20;93.70
42683;DHT22;28293;50.930;3.464;2023-10-13T07:33:28;19.20;93.50
42683;DHT22;28293;50.930;3.464;2023-10-13T07:39:04;19.30;93.40
42683;DHT22;28293;50.930;3.464;2023-10-13T07:41:51;19.30;93.20
42683;DHT22;28293;50.930;3.464;2023-10-13T07:44:21;19.40;92.80
42683;DHT22;28293;50.930;3.464;2023-10-13T07:46:53;19.50;92.40
42683;DHT22;28293;50.930;3.464;2023-10-13T07:49:28;19.50;92.50
42683;DHT22;28293;50.930;3.464;2023-10-13T07:51:57;19.60;92.20
42683;DHT22;28293;50.930;3.464;2023-10-13T07:54:26;19.70;92.30
42683;DHT22;28293;50.930;3.464;2023-10-13T07:56:52;19.70;92.10
42683;DHT22;28293;50.930;3.464;2023-10-13T07:59:20;19.80;91.90
42683;DHT22;28293;50.930;3.464;2023-10-13T08:01:48;19.80;91.30
42683;DHT22;28293;50.930;3.464;2023-10-13T08:04:32;19.80;91.10
42683;DHT22;28293;50.930;3.464;2023-10-13T08:07:01;19.90;90.80
42683;DHT22;28293;50.930;3.464;2023-10-13T08:09:37;19.90;90.70
42683;DHT22;28293;50.930;3.464;2023-10-13T08:12:06;19.80;90.70
42683;DHT22;28293;50.930;3.464;2023-10-13T08:14:36;19.90;90.30
42683;DHT22;28293;50.930;3.464;2023-10-13T08:17:05;19.90;90.20
42683;DHT22;28293;50.930;3.464;2023-10-13T08:19:38;19.90;90.60
42683;DHT22;28293;50.930;3.464;2023-10-13T08:22:15;19.90;90.60
42683;DHT22;28293;50.930;3.464;2023-10-13T08:24:47;19.90;90.70
42683;DHT22;28293;50.930;3.464;2023-10-13T08:27:15;19.90;90.70
42683;DHT22;28293;50.930;3.464;2023-10-13T08:29:46;20.00;90.90
42683;DHT22;28293;50.930;3.464;2023-10-13T08:32:34;20.00;90.70
42683;DHT22;28293;50.930;3.464;2023-10-13T08:35:20;20.00;90.30
42683;DHT22;28293;50.930;3.464;2023-10-13T08:37:55;20.00;90.40
42683;DHT22;28293;50.930;3.464;2023-10-13T08:40:26;20.00;90.50
42683;DHT22;28293;50.930;3.464;2023-10-13T08:43:13;20.00;90.40
42683;DHT22;28293;50.930;3.464;2023-10-13T08:45:42;20.00;90.50
42683;DHT22;28293;50.930;3.464;2023-10-13T08:48:11;20.00;90.20
42683;DHT22;28293;50.930;3.464;2023-10-13T08:50:45;20.00;90.10
42683;DHT22;28293;50.930;3.464;2023-10-13T08:53:20;20.10;89.70
42683;DHT22;28293;50.930;3.464;2023-10-13T08:56:13;20.10;89.40
42683;DHT22;28293;50.930;3.464;2023-10-13T08:58:40;20.10;89.40
42683;DHT22;28293;50.930;3.464;2023-10-13T09:01:29;20.10;89.20
42683;DHT22;28293;50.930;3.464;2023-10-13T09:04:15;20.20;89.00
42683;DHT22;28293;50.930;3.464;2023-10-13T09:07:01;20.10;88.80
42683;DHT22;28293;50.930;3.464;2023-10-13T09:09:49;20.10;88.90
42683;DHT22;28293;50.930;3.464;2023-10-13T09:12:23;20.10;88.80
42683;DHT22;28293;50.930;3.464;2023-10-13T09:15:05;20.20;88.40
42683;DHT22;28293;50.930;3.464;2023-10-13T09:17:49;20.20;88.30
42683;DHT22;28293;50.930;3.464;2023-10-13T09:20:38;20.20;88.40
42683;DHT22;28293;50.930;3.464;2023-10-13T09:23:12;20.20;87.80
42683;DHT22;28293;50.930;3.464;2023-10-13T09:25:45;20.30;87.60
42683;DHT22;28293;50.930;3.464;2023-10-13T09:28:23;20.30;87.50
42683;DHT22;28293;50.930;3.464;2023-10-13T09:30:54;20.30;87.40
42683;DHT22;28293;50.930;3.464;2023-10-13T09:33:26;20.30;87.60
42683;DHT22;28293;50.930;3.464;2023-10-13T09:36:03;20.30;87.50
42683;DHT22;28293;50.930;3.464;2023-10-13T09:38:36;20.30;87.40
42683;DHT22;28293;50.930;3.464;2023-10-13T09:41:07;20.30;87.30
42683;DHT22;28293;50.930;3.464;2023-10-13T09:43:46;20.30;87.00
42683;DHT22;28293;50.930;3.464;2023-10-13T09:46:19;20.40;86.80
42683;DHT22;28293;50.930;3.464;2023-10-13T09:48:49;20.40;86.70
42683;DHT22;28293;50.930;3.464;2023-10-13T09:51:30;20.40;87.00
42683;DHT22;28293;50.930;3.464;2023-10-13T09:54:06;20.30;87.60
42683;DHT22;28293;50.930;3.464;2023-10-13T09:56:44;20.20;87.50
42683;DHT22;28293;50.930;3.464;2023-10-13T09:59:50;20.20;87.80
42683;DHT22;28293;50.930;3.464;2023-10-13T10:02:19;20.20;87.70
42683;DHT22;28293;50.930;3.464;2023-10-13T10:04:55;20.10;88.00
42683;DHT22;28293;50.930;3.464;2023-10-13T10:07:54;20.10;87.70
42683;DHT22;28293;50.930;3.464;2023-10-13T10:10:22;20.20;87.00
42683;DHT22;28293;50.930;3.464;2023-10-13T10:13:13;20.20;87.10
42683;DHT22;28293;50.930;3.464;2023-10-13T10:15:46;20.30;86.30
42683;DHT22;28293;50.930;3.464;2023-10-13T10:20:48;20.40;85.70
42683;DHT22;28293;50.930;3.464;2023-10-13T10:23:28;20.60;86.00
42683;DHT22;28293;50.930;3.464;2023-10-13T10:26:15;20.60;85.70
42683;DHT22;28293;50.930;3.464;2023-10-13T10:28:45;20.60;85.70
42683;DHT22;28293;50.930;3.464;2023-10-13T10:31:12;20.60;85.90
42683;DHT22;28293;50.930;3.464;2023-10-13T10:33:39;20.70;85.50
42683;DHT22;28293;50.930;3.464;2023-10-13T10:36:06;20.90;85.10
42683;DHT22;28293;50.930;3.464;2023-10-13T10:38:31;21.00;84.00
42683;DHT22;28293;50.930;3.464;2023-10-13T10:41:05;21.10;83.40
42683;DHT22;28293;50.930;3.464;2023-10-13T10:46:10;21.30;82.90
42683;DHT22;28293;50.930;3.464;2023-10-13T10:48:37;21.40;82.20
42683;DHT22;28293;50.930;3.464;2023-10-13T10:51:12;21.50;81.70
42683;DHT22;28293;50.930;3.464;2023-10-13T10:53:48;21.50;81.30
42683;DHT22;28293;50.930;3.464;2023-10-13T10:56:17;21.50;81.20
42683;DHT22;28293;50.930;3.464;2023-10-13T10:58:57;21.60;80.70
42683;DHT22;28293;50.930;3.464;2023-10-13T11:01:24;21.60;80.60
42683;DHT22;28293;50.930;3.464;2023-10-13T11:04:00;21.70;80.20
42683;DHT22;28293;50.930;3.464;2023-10-13T11:07:05;21.80;80.10
42683;DHT22;28293;50.930;3.464;2023-10-13T11:09:33;21.90;80.00
42683;DHT22;28293;50.930;3.464;2023-10-13T11:14:44;22.10;79.70
42683;DHT22;28293;50.930;3.464;2023-10-13T11:17:19;22.10;79.30
42683;DHT22;28293;50.930;3.464;2023-10-13T11:19:50;22.10;78.80
42683;DHT22;28293;50.930;3.464;2023-10-13T11:22:17;22.20;78.80
42683;DHT22;28293;50.930;3.464;2023-10-13T11:25:03;22.30;79.20
42683;DHT22;28293;50.930;3.464;2023-10-13T11:27:35;22.40;78.40
42683;DHT22;28293;50.930;3.464;2023-10-13T11:30:22;22.40;78.10
42683;DHT22;28293;50.930;3.464;2023-10-13T11:33:10;22.50;78.50
42683;DHT22;28293;50.930;3.464;2023-10-13T11:35:37;22.50;78.20
42683;DHT22;28293;50.930;3.464;2023-10-13T11:38:26;22.40;77.70
42683;DHT22;28293;50.930;3.464;2023-10-13T11:41:03;22.30;77.60
42683;DHT22;28293;50.930;3.464;2023-10-13T11:43:36;22.30;77.90
42683;DHT22;28293;50.930;3.464;2023-10-13T11:46:12;22.30;78.00
42683;DHT22;28293;50.930;3.464;2023-10-13T11:48:41;22.30;77.80
42683;DHT22;28293;50.930;3.464;2023-10-13T11:51:12;22.20;77.80
42683;DHT22;28293;50.930;3.464;2023-10-13T11:54:04;22.30;78.00
42683;DHT22;28293;50.930;3.464;2023-10-13T11:56:30;22.40;77.60
42683;DHT22;28293;50.930;3.464;2023-10-13T11:58:56;22.40;78.10
42683;DHT22;28293;50.930;3.464;2023-10-13T12:01:27;22.50;77.20
42683;DHT22;28293;50.930;3.464;2023-10-13T12:04:12;22.60;76.50
42683;DHT22;28293;50.930;3.464;2023-10-13T12:06:56;22.80;75.30
42683;DHT22;28293;50.930;3.464;2023-10-13T12:09:43;23.00;75.50
42683;DHT22;28293;50.930;3.464;2023-10-13T12:12:29;23.10;75.00
42683;DHT22;28293;50.930;3.464;2023-10-13T12:15:06;23.20;75.10
42683;DHT22;28293;50.930;3.464;2023-10-13T12:17:36;23.20;75.30
42683;DHT22;28293;50.930;3.464;2023-10-13T12:20:08;23.30;75.20
42683;DHT22;28293;50.930;3.464;2023-10-13T12:22:43;23.30;75.50
42683;DHT22;28293;50.930;3.464;2023-10-13T12:25:11;23.30;75.20
42683;DHT22;28293;50.930;3.464;2023-10-13T12:27:55;23.30;75.10
42683;DHT22;28293;50.930;3.464;2023-10-13T12:30:38;23.30;75.50
42683;DHT22;28293;50.930;3.464;2023-10-13T12:33:20;23.20;75.90
42683;DHT22;28293;50.930;3.464;2023-10-13T12:36:00;23.10;76.30
42683;DHT22;28293;50.930;3.464;2023-10-13T12:38:36;23.00;77.30
42683;DHT22;28293;50.930;3.464;2023-10-13T12:41:06;22.90;77.90
42683;DHT22;28293;50.930;3.464;2023-10-13T12:43:50;22.80;79.00
42683;DHT22;28293;50.930;3.464;2023-10-13T12:46:34;22.60;78.30
42683;DHT22;28293;50.930;3.464;2023-10-13T12:49:18;22.60;79.60
42683;DHT22;28293;50.930;3.464;2023-10-13T12:52:03;22.50;79.90
42683;DHT22;28293;50.930;3.464;2023-10-13T12:54:29;22.50;80.20
42683;DHT22;28293;50.930;3.464;2023-10-13T12:57:01;22.40;79.90
42683;DHT22;28293;50.930;3.464;2023-10-13T12:59:28;22.40;79.80
42683;DHT22;28293;50.930;3.464;2023-10-13T13:01:54;22.40;79.20
42683;DHT22;28293;50.930;3.464;2023-10-13T13:04:20;22.40;78.20
42683;DHT22;28293;50.930;3.464;2023-10-13T13:06:51;22.50;78.20
42683;DHT22;28293;50.930;3.464;2023-10-13T13:09:19;22.50;77.80
42683;DHT22;28293;50.930;3.464;2023-10-13T13:11:54;22.50;77.50
42683;DHT22;28293;50.930;3.464;2023-10-13T13:14:23;22.60;77.50
42683;DHT22;28293;50.930;3.464;2023-10-13T13:16:55;22.60;77.10
42683;DHT22;28293;50.930;3.464;2023-10-13T13:19:36;22.60;78.30
42683;DHT22;28293;50.930;3.464;2023-10-13T13:22:05;22.60;79.00
42683;DHT22;28293;50.930;3.464;2023-10-13T13:24:40;22.60;79.30
42683;DHT22;28293;50.930;3.464;2023-10-13T13:27:14;22.60;79.60
42683;DHT22;28293;50.930;3.464;2023-10-13T13:29:44;22.50;78.60
42683;DHT22;28293;50.930;3.464;2023-10-13T13:32:10;22.50;78.90
42683;DHT22;28293;50.930;3.464;2023-10-13T13:34:50;22.40;79.30
42683;DHT22;28293;50.930;3.464;2023-10-13T13:37:39;22.30;79.30
42683;DHT22;28293;50.930;3.464;2023-10-13T13:40:06;22.30;79.60
42683;DHT22;28293;50.930;3.464;2023-10-13T13:42:43;22.20;80.20
42683;DHT22;28293;50.930;3.464;2023-10-13T13:45:17;22.20;80.00
42683;DHT22;28293;50.930;3.464;2023-10-13T13:47:57;22.20;80.50
42683;DHT22;28293;50.930;3.464;2023-10-13T13:50:24;22.30;80.30
42683;DHT22;28293;50.930;3.464;2023-10-13T13:52:53;22.20;80.10
42683;DHT22;28293;50.930;3.464;2023-10-13T13:55:24;22.20;80.00
42683;DHT22;28293;50.930;3.464;2023-10-13T13:57:56;22.10;80.10
42683;DHT22;28293;50.930;3.464;2023-10-13T14:00:21;22.10;79.50
42683;DHT22;28293;50.930;3.464;2023-10-13T14:03:05;22.10;79.80
42683;DHT22;28293;50.930;3.464;2023-10-13T14:05:43;22.00;79.80
42683;DHT22;28293;50.930;3.464;2023-10-13T14:08:09;22.00;80.10
42683;DHT22;28293;50.930;3.464;2023-10-13T14:10:38;21.90;80.40
42683;DHT22;28293;50.930;3.464;2023-10-13T14:13:24;21.90;80.10
42683;DHT22;28293;50.930;3.464;2023-10-13T14:16:09;22.00;80.40
42683;DHT22;28293;50.930;3.464;2023-10-13T14:18:54;22.00;80.50
42683;DHT22;28293;50.930;3.464;2023-10-13T14:21:20;22.00;80.70
42683;DHT22;28293;50.930;3.464;2023-10-13T14:23:50;22.00;80.50
42683;DHT22;28293;50.930;3.464;2023-10-13T14:26:20;22.00;81.30
42683;DHT22;28293;50.930;3.464;2023-10-13T14:28:50;21.90;80.90
42683;DHT22;28293;50.930;3.464;2023-10-13T14:31:34;21.80;80.70
42683;DHT22;28293;50.930;3.464;2023-10-13T14:34:05;21.80;81.20
42683;DHT22;28293;50.930;3.464;2023-10-13T14:36:32;21.80;81.30
42683;DHT22;28293;50.930;3.464;2023-10-13T14:39:02;21.80;80.50
42683;DHT22;28293;50.930;3.464;2023-10-13T14:41:28;21.80;80.60
42683;DHT22;28293;50.930;3.464;2023-10-13T14:43:55;21.80;80.70
42683;DHT22;28293;50.930;3.464;2023-10-13T14:46:30;21.80;81.10
42683;DHT22;28293;50.930;3.464;2023-10-13T14:48:56;21.80;80.50
42683;DHT22;28293;50.930;3.464;2023-10-13T14:51:22;21.80;80.30
42683;DHT22;28293;50.930;3.464;2023-10-13T14:53:48;21.90;80.40
42683;DHT22;28293;50.930;3.464;2023-10-13T14:56:15;21.90;80.00
42683;DHT22;28293;50.930;3.464;2023-10-13T14:58:41;22.00;79.60
42683;DHT22;28293;50.930;3.464;2023-10-13T15:01:17;22.00;79.40
42683;DHT22;28293;50.930;3.464;2023-10-13T15:03:44;22.00;78.80
42683;DHT22;28293;50.930;3.464;2023-10-13T15:06:20;22.00;78.60
42683;DHT22;28293;50.930;3.464;2023-10-13T15:08:47;22.10;79.20
42683;DHT22;28293;50.930;3.464;2023-10-13T15:11:13;22.10;79.10
42683;DHT22;28293;50.930;3.464;2023-10-13T15:13:42;22.10;78.30
42683;DHT22;28293;50.930;3.464;2023-10-13T15:16:18;22.20;78.10
42683;DHT22;28293;50.930;3.464;2023-10-13T15:18:51;22.20;78.20
42683;DHT22;28293;50.930;3.464;2023-10-13T15:21:29;22.10;77.90
42683;DHT22;28293;50.930;3.464;2023-10-13T15:24:02;22.20;78.50
42683;DHT22;28293;50.930;3.464;2023-10-13T15:26:41;22.20;78.20
42683;DHT22;28293;50.930;3.464;2023-10-13T15:29:11;22.10;78.40
42683;DHT22;28293;50.930;3.464;2023-10-13T15:31:41;22.00;78.40
42683;DHT22;28293;50.930;3.464;2023-10-13T15:34:12;22.00;78.50
42683;DHT22;28293;50.930;3.464;2023-10-13T15:36:42;22.00;78.80
42683;DHT22;28293;50.930;3.464;2023-10-13T15:39:09;21.90;78.60
42683;DHT22;28293;50.930;3.464;2023-10-13T15:41:37;21.90;78.60
42683;DHT22;28293;50.930;3.464;2023-10-13T15:44:15;21.90;78.60
42683;DHT22;28293;50.930;3.464;2023-10-13T15:46:41;21.90;78.80
42683;DHT22;28293;50.930;3.464;2023-10-13T15:49:06;21.90;79.30
42683;DHT22;28293;50.930;3.464;2023-10-13T15:51:33;21.90;79.30
42683;DHT22;28293;50.930;3.464;2023-10-13T15:53:59;21.80;79.70
42683;DHT22;28293;50.930;3.464;2023-10-13T15:56:25;21.80;80.30
42683;DHT22;28293;50.930;3.464;2023-10-13T15:58:51;21.70;81.40
42683;DHT22;28293;50.930;3.464;2023-10-13T16:01:16;21.60;82.40
42683;DHT22;28293;50.930;3.464;2023-10-13T16:03:43;21.50;82.80
42683;DHT22;28293;50.930;3.464;2023-10-13T16:06:10;21.40;82.80
42683;DHT22;28293;50.930;3.464;2023-10-13T16:08:37;21.30;83.20
42683;DHT22;28293;50.930;3.464;2023-10-13T16:11:07;21.20;83.50
42683;DHT22;28293;50.930;3.464;2023-10-13T16:13:34;21.20;83.30
42683;DHT22;28293;50.930;3.464;2023-10-13T16:16:02;21.20;83.30
42683;DHT22;28293;50.930;3.464;2023-10-13T16:18:28;21.20;83.20
42683;DHT22;28293;50.930;3.464;2023-10-13T16:21:01;21.20;83.30
42683;DHT22;28293;50.930;3.464;2023-10-13T16:23:29;21.20;83.20
42683;DHT22;28293;50.930;3.464;2023-10-13T16:25:56;21.10;83.50
42683;DHT22;28293;50.930;3.464;2023-10-13T16:28:24;21.10;83.00
42683;DHT22;28293;50.930;3.464;2023-10-13T16:30:50;21.20;83.30